DXX0466 LEAL-EKCH
Flight info
| Callsign | DXX0466 |
|---|---|
| Flight time | 2h 54m |
| Altitude | 32000 |
| Route | MITOS DCT ARGOR DCT EBROX/N0449F360 DCT LATRO DCT OLOXO DCT OKABI DCT TOU DCT ADABI DCT BOKNO UN858 VANAD UN874 ARSAF DCT EGOZE DCT CMB DCT VEKIN DCT ADUTO N873 VICOT/N0448F370 DCT TALSA P729 TUDLO |
| Aircraft | A321/M-SDE3FGHIRWY/LB1 |
Departure
| Time | 2026-05-04 22:03 |
|---|---|
| Airport | Alicante-Elche Miguel Hernández Airport (LEAL) |
Arrival
| Time | 2026-05-05 00:57 |
|---|---|
| Airport | Copenhagen Kastrup Airport (EKCH) |
| Time | Latitude | Longitude | Altitude | Speed | Heading |
|---|---|---|---|---|---|
| 2026-05-04 21:23 | 38.28520 | -0.55233 | 85 ft | 0 kts | 10° |
| 2026-05-04 21:50 | 38.28498 | -0.55238 | 85 ft | 3 kts | 10° |
| 2026-05-04 21:50 | 38.28472 | -0.55244 | 86 ft | 3 kts | 10° |
| 2026-05-04 21:50 | 38.28447 | -0.55247 | 86 ft | 3 kts | 351° |
| 2026-05-04 21:51 | 38.28430 | -0.55232 | 85 ft | 0 kts | 303° |
| 2026-05-04 21:56 | 38.28427 | -0.55226 | 84 ft | 1 kts | 301° |
| 2026-05-04 21:56 | 38.28448 | -0.55296 | 88 ft | 14 kts | 285° |
| 2026-05-04 21:56 | 38.28436 | -0.55426 | 93 ft | 14 kts | 210° |
| 2026-05-04 21:56 | 38.28406 | -0.55333 | 89 ft | 16 kts | 60° |
| 2026-05-04 21:57 | 38.28395 | -0.55200 | 83 ft | 17 kts | 174° |
| 2026-05-04 21:57 | 38.28326 | -0.55295 | 86 ft | 14 kts | 266° |
| 2026-05-04 21:57 | 38.28336 | -0.55403 | 91 ft | 9 kts | 279° |
| 2026-05-04 21:57 | 38.28345 | -0.55469 | 95 ft | 5 kts | 280° |
| 2026-05-04 21:58 | 38.28352 | -0.55517 | 98 ft | 14 kts | 280° |
| 2026-05-04 21:58 | 38.28377 | -0.55680 | 101 ft | 20 kts | 281° |
| 2026-05-04 21:58 | 38.28404 | -0.55858 | 102 ft | 19 kts | 280° |
| 2026-05-04 21:58 | 38.28425 | -0.56021 | 104 ft | 18 kts | 278° |
| 2026-05-04 21:59 | 38.28448 | -0.56174 | 106 ft | 16 kts | 281° |
| 2026-05-04 21:59 | 38.28467 | -0.56299 | 111 ft | 12 kts | 280° |
| 2026-05-04 21:59 | 38.28480 | -0.56396 | 114 ft | 10 kts | 279° |
| 2026-05-04 21:59 | 38.28494 | -0.56503 | 117 ft | 17 kts | 278° |
| 2026-05-04 22:00 | 38.28517 | -0.56689 | 124 ft | 25 kts | 278° |
| 2026-05-04 22:00 | 38.28550 | -0.56937 | 135 ft | 29 kts | 279° |
| 2026-05-04 22:00 | 38.28582 | -0.57176 | 144 ft | 25 kts | 280° |
| 2026-05-04 22:00 | 38.28605 | -0.57364 | 150 ft | 16 kts | 262° |
| 2026-05-04 22:01 | 38.28556 | -0.57424 | 152 ft | 5 kts | 197° |
| 2026-05-04 22:01 | 38.28549 | -0.57427 | 152 ft | 0 kts | 194° |
| 2026-05-04 22:01 | 38.28545 | -0.57428 | 152 ft | 0 kts | 193° |
| 2026-05-04 22:01 | 38.28536 | -0.57430 | 152 ft | 7 kts | 191° |
| 2026-05-04 22:02 | 38.28460 | -0.57410 | 151 ft | 15 kts | 135° |
| 2026-05-04 22:02 | 38.28418 | -0.57239 | 145 ft | 24 kts | 102° |
| 2026-05-04 22:02 | 38.28355 | -0.56837 | 129 ft | 79 kts | 99° |
| 2026-05-04 22:02 | 38.28220 | -0.55870 | 98 ft | 142 kts | 99° |
| 2026-05-04 22:03 | 38.28019 | -0.54396 | 180 ft | 183 kts | 99° |
| 2026-05-04 22:03 | 38.27856 | -0.52854 | 890 ft | 172 kts | 98° |
| 2026-05-04 22:03 | 38.27689 | -0.51353 | 1426 ft | 175 kts | 101° |
| 2026-05-04 22:03 | 38.27737 | -0.49795 | 1880 ft | 185 kts | 70° |
| 2026-05-04 22:04 | 38.28400 | -0.48342 | 2215 ft | 199 kts | 56° |
| 2026-05-04 22:04 | 38.29202 | -0.46818 | 2528 ft | 214 kts | 56° |
| 2026-05-04 22:04 | 38.30057 | -0.45183 | 2834 ft | 230 kts | 56° |
| 2026-05-04 22:04 | 38.30976 | -0.43418 | 3081 ft | 251 kts | 56° |
| 2026-05-04 22:05 | 38.31951 | -0.41504 | 3434 ft | 269 kts | 60° |
| 2026-05-04 22:05 | 38.32750 | -0.39275 | 3891 ft | 282 kts | 69° |
| 2026-05-04 22:05 | 38.33427 | -0.36915 | 4593 ft | 285 kts | 70° |
| 2026-05-04 22:05 | 38.34096 | -0.34580 | 5281 ft | 288 kts | 70° |
| 2026-05-04 22:06 | 38.34810 | -0.32183 | 5970 ft | 292 kts | 70° |
| 2026-05-04 22:06 | 38.35548 | -0.29769 | 6641 ft | 295 kts | 69° |
| 2026-05-04 22:06 | 38.36309 | -0.27337 | 7322 ft | 298 kts | 68° |
| 2026-05-04 22:06 | 38.37120 | -0.24888 | 7967 ft | 303 kts | 67° |
| 2026-05-04 22:07 | 38.37946 | -0.22434 | 8602 ft | 307 kts | 67° |
| 2026-05-04 22:07 | 38.38792 | -0.19921 | 9247 ft | 310 kts | 67° |
| 2026-05-04 22:07 | 38.39637 | -0.17393 | 9870 ft | 314 kts | 67° |
| 2026-05-04 22:07 | 38.40501 | -0.14803 | 10378 ft | 322 kts | 68° |
| 2026-05-04 22:08 | 38.41384 | -0.12144 | 10657 ft | 338 kts | 68° |
| 2026-05-04 22:08 | 38.42329 | -0.09294 | 10950 ft | 353 kts | 68° |
| 2026-05-04 22:08 | 38.43304 | -0.06353 | 11215 ft | 367 kts | 67° |
| 2026-05-04 22:08 | 38.44416 | -0.03432 | 11655 ft | 374 kts | 55° |
| 2026-05-04 22:09 | 38.46278 | -0.01158 | 12212 ft | 372 kts | 27° |
| 2026-05-04 22:09 | 38.48673 | -0.00053 | 12802 ft | 366 kts | 8° |
| 2026-05-04 22:09 | 38.51181 | 0.00585 | 13349 ft | 369 kts | 6° |
| 2026-05-04 22:09 | 38.53701 | 0.01220 | 13857 ft | 374 kts | 7° |
| 2026-05-04 22:10 | 38.56256 | 0.01887 | 14375 ft | 378 kts | 7° |
| 2026-05-04 22:10 | 38.58869 | 0.02593 | 14894 ft | 383 kts | 7° |
| 2026-05-04 22:10 | 38.61461 | 0.03308 | 15372 ft | 386 kts | 7° |
| 2026-05-04 22:10 | 38.64104 | 0.04047 | 15891 ft | 390 kts | 7° |
| 2026-05-04 22:11 | 38.66783 | 0.04804 | 16389 ft | 394 kts | 7° |
| 2026-05-04 22:11 | 38.69462 | 0.05564 | 16872 ft | 397 kts | 7° |
| 2026-05-04 22:11 | 38.72170 | 0.06332 | 17351 ft | 401 kts | 7° |
| 2026-05-04 22:11 | 38.74867 | 0.07100 | 17804 ft | 405 kts | 6° |
| 2026-05-04 22:12 | 38.77636 | 0.07887 | 18279 ft | 408 kts | 7° |
| 2026-05-04 22:12 | 38.80429 | 0.08680 | 18719 ft | 411 kts | 7° |
| 2026-05-04 22:12 | 38.83207 | 0.09471 | 19167 ft | 414 kts | 7° |
| 2026-05-04 22:12 | 38.86048 | 0.10284 | 19603 ft | 418 kts | 7° |
| 2026-05-04 22:13 | 38.88870 | 0.11089 | 20024 ft | 421 kts | 7° |
| 2026-05-04 22:13 | 38.91746 | 0.11911 | 20424 ft | 425 kts | 7° |
| 2026-05-04 22:13 | 38.94634 | 0.12738 | 20837 ft | 428 kts | 7° |
| 2026-05-04 22:13 | 38.97542 | 0.13571 | 21233 ft | 431 kts | 7° |
| 2026-05-04 22:14 | 39.00473 | 0.14411 | 21615 ft | 434 kts | 7° |
| 2026-05-04 22:14 | 39.03443 | 0.15263 | 22002 ft | 438 kts | 7° |
| 2026-05-04 22:14 | 39.06426 | 0.16119 | 22368 ft | 441 kts | 7° |
| 2026-05-04 22:14 | 39.09410 | 0.16980 | 22738 ft | 444 kts | 7° |
| 2026-05-04 22:15 | 39.12443 | 0.17853 | 23086 ft | 447 kts | 7° |
| 2026-05-04 22:15 | 39.15481 | 0.18727 | 23427 ft | 450 kts | 7° |
| 2026-05-04 22:15 | 39.18548 | 0.19613 | 23769 ft | 453 kts | 7° |
| 2026-05-04 22:15 | 39.21621 | 0.20500 | 24114 ft | 455 kts | 7° |
| 2026-05-04 22:16 | 39.24721 | 0.21396 | 24446 ft | 458 kts | 7° |
| 2026-05-04 22:16 | 39.27867 | 0.22308 | 24796 ft | 460 kts | 7° |
| 2026-05-04 22:16 | 39.30991 | 0.23213 | 25132 ft | 462 kts | 7° |
| 2026-05-04 22:16 | 39.34117 | 0.24119 | 25436 ft | 465 kts | 7° |
| 2026-05-04 22:17 | 39.37291 | 0.25037 | 25724 ft | 468 kts | 7° |
| 2026-05-04 22:17 | 39.40464 | 0.25960 | 26033 ft | 470 kts | 7° |
| 2026-05-04 22:17 | 39.43639 | 0.26883 | 26366 ft | 472 kts | 7° |
| 2026-05-04 22:17 | 39.46878 | 0.27827 | 26677 ft | 474 kts | 7° |
| 2026-05-04 22:18 | 39.50088 | 0.28770 | 26943 ft | 477 kts | 8° |
| 2026-05-04 22:18 | 39.53292 | 0.30032 | 27199 ft | 484 kts | 15° |
| 2026-05-04 22:18 | 39.56374 | 0.31771 | 27447 ft | 491 kts | 23° |
| 2026-05-04 22:18 | 39.59362 | 0.33951 | 27711 ft | 495 kts | 27° |
| 2026-05-04 22:19 | 39.62295 | 0.36267 | 27982 ft | 498 kts | 28° |
| 2026-05-04 22:19 | 39.65250 | 0.38640 | 28252 ft | 500 kts | 28° |
| 2026-05-04 22:19 | 39.68209 | 0.41012 | 28510 ft | 502 kts | 28° |
| 2026-05-04 22:19 | 39.71211 | 0.43401 | 28763 ft | 504 kts | 28° |
| 2026-05-04 22:20 | 39.74189 | 0.45761 | 29006 ft | 506 kts | 28° |
| 2026-05-04 22:20 | 39.77173 | 0.48118 | 29252 ft | 508 kts | 28° |
| 2026-05-04 22:20 | 39.80203 | 0.50508 | 29491 ft | 509 kts | 28° |
| 2026-05-04 22:20 | 39.83249 | 0.52913 | 29744 ft | 511 kts | 28° |
| 2026-05-04 22:21 | 39.86291 | 0.55316 | 29968 ft | 513 kts | 28° |
| 2026-05-04 22:21 | 39.89342 | 0.57729 | 30189 ft | 515 kts | 28° |
| 2026-05-04 22:21 | 39.92381 | 0.60133 | 30475 ft | 515 kts | 27° |
| 2026-05-04 22:21 | 39.95436 | 0.62555 | 30796 ft | 514 kts | 28° |
| 2026-05-04 22:22 | 39.98465 | 0.64955 | 31092 ft | 514 kts | 28° |
| 2026-05-04 22:22 | 40.01546 | 0.67401 | 31348 ft | 514 kts | 28° |
| 2026-05-04 22:22 | 40.04577 | 0.69811 | 31603 ft | 514 kts | 28° |
| 2026-05-04 22:22 | 40.07636 | 0.72244 | 31873 ft | 514 kts | 28° |
| 2026-05-04 22:23 | 40.10711 | 0.74693 | 32145 ft | 513 kts | 28° |
| 2026-05-04 22:23 | 40.13752 | 0.77117 | 32390 ft | 512 kts | 29° |
| 2026-05-04 22:23 | 40.16746 | 0.79508 | 32641 ft | 512 kts | 29° |
| 2026-05-04 22:23 | 40.19809 | 0.81956 | 32902 ft | 511 kts | 29° |
| 2026-05-04 22:24 | 40.22823 | 0.84369 | 33141 ft | 510 kts | 28° |
| 2026-05-04 22:24 | 40.25830 | 0.86774 | 33371 ft | 510 kts | 29° |
| 2026-05-04 22:24 | 40.28859 | 0.89202 | 33586 ft | 510 kts | 29° |
| 2026-05-04 22:24 | 40.31885 | 0.91633 | 33784 ft | 510 kts | 28° |
| 2026-05-04 22:25 | 40.34891 | 0.94047 | 34000 ft | 510 kts | 29° |
| 2026-05-04 22:25 | 40.37921 | 0.96482 | 34208 ft | 509 kts | 29° |
| 2026-05-04 22:25 | 40.40921 | 0.98896 | 34393 ft | 509 kts | 29° |
| 2026-05-04 22:25 | 40.43941 | 1.01330 | 34568 ft | 508 kts | 29° |
| 2026-05-04 22:26 | 40.46928 | 1.03742 | 34746 ft | 508 kts | 28° |
| 2026-05-04 22:26 | 40.49938 | 1.06176 | 34937 ft | 507 kts | 28° |
| 2026-05-04 22:26 | 40.52913 | 1.08584 | 35148 ft | 506 kts | 28° |
| 2026-05-04 22:26 | 40.55914 | 1.11012 | 35346 ft | 504 kts | 28° |
| 2026-05-04 22:27 | 40.58894 | 1.13428 | 35527 ft | 503 kts | 28° |
| 2026-05-04 22:27 | 40.61851 | 1.15829 | 35705 ft | 502 kts | 29° |
| 2026-05-04 22:27 | 40.64834 | 1.18242 | 35858 ft | 502 kts | 28° |
| 2026-05-04 22:27 | 40.67882 | 1.20501 | 36000 ft | 500 kts | 24° |
| 2026-05-04 22:28 | 40.71006 | 1.22489 | 36171 ft | 498 kts | 19° |
| 2026-05-04 22:28 | 40.74186 | 1.24185 | 36372 ft | 494 kts | 15° |
| 2026-05-04 22:28 | 40.77443 | 1.25603 | 36542 ft | 491 kts | 11° |
| 2026-05-04 22:28 | 40.80698 | 1.26801 | 36715 ft | 490 kts | 9° |
| 2026-05-04 22:29 | 40.84022 | 1.27965 | 36861 ft | 490 kts | 9° |
| 2026-05-04 22:29 | 40.87312 | 1.29112 | 36985 ft | 491 kts | 9° |
| 2026-05-04 22:29 | 40.90580 | 1.30263 | 37124 ft | 491 kts | 9° |
| 2026-05-04 22:29 | 40.93890 | 1.31438 | 37237 ft | 492 kts | 10° |
| 2026-05-04 22:30 | 40.97196 | 1.32620 | 37324 ft | 493 kts | 10° |
| 2026-05-04 22:30 | 41.03811 | 1.35005 | 37538 ft | 494 kts | 10° |
| 2026-05-04 22:30 | 41.07115 | 1.36200 | 37642 ft | 495 kts | 10° |
| 2026-05-04 22:31 | 41.10451 | 1.37406 | 37722 ft | 495 kts | 10° |
| 2026-05-04 22:31 | 41.17112 | 1.39819 | 37870 ft | 496 kts | 10° |
| 2026-05-04 22:32 | 41.23794 | 1.42245 | 37938 ft | 497 kts | 10° |
| 2026-05-04 22:32 | 41.30458 | 1.44671 | 37947 ft | 497 kts | 10° |
| 2026-05-04 22:33 | 41.37113 | 1.47097 | 37936 ft | 498 kts | 10° |
| 2026-05-04 22:33 | 41.43774 | 1.49535 | 37946 ft | 497 kts | 10° |
| 2026-05-04 22:34 | 41.50410 | 1.51964 | 37951 ft | 497 kts | 10° |
| 2026-05-04 22:34 | 41.57100 | 1.54421 | 37952 ft | 497 kts | 11° |
| 2026-05-04 22:35 | 41.63743 | 1.56869 | 37951 ft | 497 kts | 10° |
| 2026-05-04 22:35 | 41.70426 | 1.59249 | 37944 ft | 496 kts | 7° |
| 2026-05-04 22:36 | 41.77195 | 1.60648 | 37948 ft | 488 kts | 358° |
| 2026-05-04 22:36 | 41.83919 | 1.60748 | 37945 ft | 481 kts | 349° |
| 2026-05-04 22:37 | 41.90557 | 1.59814 | 37946 ft | 479 kts | 346° |
| 2026-05-04 22:37 | 41.97155 | 1.58712 | 37945 ft | 478 kts | 346° |
| 2026-05-04 22:38 | 42.03759 | 1.57636 | 37952 ft | 479 kts | 346° |
| 2026-05-04 22:38 | 42.10340 | 1.56583 | 37942 ft | 479 kts | 346° |
| 2026-05-04 22:39 | 42.16967 | 1.55526 | 37942 ft | 480 kts | 346° |
| 2026-05-04 22:39 | 42.23587 | 1.54471 | 37953 ft | 479 kts | 346° |
| 2026-05-04 22:40 | 42.30214 | 1.53410 | 37964 ft | 479 kts | 346° |
| 2026-05-04 22:40 | 42.36813 | 1.52354 | 37963 ft | 479 kts | 346° |
| 2026-05-04 22:41 | 42.43491 | 1.51278 | 37962 ft | 480 kts | 347° |
| 2026-05-04 22:41 | 42.50081 | 1.50216 | 37958 ft | 480 kts | 347° |
| 2026-05-04 22:42 | 42.56720 | 1.49148 | 37956 ft | 480 kts | 347° |
| 2026-05-04 22:42 | 42.63309 | 1.48085 | 37936 ft | 480 kts | 347° |
| 2026-05-04 22:43 | 42.69926 | 1.47018 | 37933 ft | 479 kts | 347° |
| 2026-05-04 22:43 | 42.76535 | 1.45953 | 37925 ft | 480 kts | 347° |
| 2026-05-04 22:44 | 42.83146 | 1.44888 | 37953 ft | 480 kts | 347° |
| 2026-05-04 22:44 | 42.89782 | 1.43815 | 37922 ft | 481 kts | 347° |
| 2026-05-04 22:45 | 42.96434 | 1.42737 | 37924 ft | 480 kts | 347° |
| 2026-05-04 22:45 | 43.06347 | 1.41125 | 37931 ft | 480 kts | 347° |
| 2026-05-04 22:46 | 43.12965 | 1.40049 | 37923 ft | 479 kts | 347° |
| 2026-05-04 22:46 | 43.19572 | 1.38970 | 37930 ft | 479 kts | 347° |
| 2026-05-04 22:47 | 43.26145 | 1.37892 | 37933 ft | 480 kts | 347° |
| 2026-05-04 22:47 | 43.32784 | 1.36805 | 37929 ft | 480 kts | 347° |
| 2026-05-04 22:48 | 43.39417 | 1.35715 | 37921 ft | 480 kts | 348° |
| 2026-05-04 22:48 | 43.46063 | 1.34621 | 37919 ft | 481 kts | 348° |
| 2026-05-04 22:49 | 43.52681 | 1.33530 | 37929 ft | 480 kts | 348° |
| 2026-05-04 22:49 | 43.59285 | 1.32436 | 37927 ft | 480 kts | 348° |
| 2026-05-04 22:50 | 43.65888 | 1.31343 | 37931 ft | 480 kts | 348° |
| 2026-05-04 22:50 | 43.72474 | 1.29893 | 37923 ft | 478 kts | 344° |
| 2026-05-04 22:51 | 43.78979 | 1.28200 | 37916 ft | 477 kts | 344° |
| 2026-05-04 22:51 | 43.85533 | 1.26487 | 37920 ft | 477 kts | 344° |
| 2026-05-04 22:52 | 43.92063 | 1.24789 | 37919 ft | 477 kts | 344° |
| 2026-05-04 22:52 | 43.98563 | 1.23100 | 37911 ft | 477 kts | 345° |
| 2026-05-04 22:53 | 44.05091 | 1.21405 | 37914 ft | 476 kts | 345° |
| 2026-05-04 22:53 | 44.11618 | 1.19704 | 37912 ft | 476 kts | 344° |
| 2026-05-04 22:54 | 44.18105 | 1.18010 | 37920 ft | 476 kts | 344° |
| 2026-05-04 22:54 | 44.24615 | 1.16305 | 37912 ft | 477 kts | 345° |
| 2026-05-04 22:55 | 44.31174 | 1.14583 | 37921 ft | 478 kts | 345° |
| 2026-05-04 22:55 | 44.37678 | 1.12873 | 37915 ft | 478 kts | 345° |
| 2026-05-04 22:56 | 44.44214 | 1.11152 | 37917 ft | 478 kts | 345° |
| 2026-05-04 22:56 | 44.50762 | 1.09423 | 37913 ft | 477 kts | 345° |
| 2026-05-04 22:57 | 44.57248 | 1.07705 | 37923 ft | 478 kts | 345° |
| 2026-05-04 22:57 | 44.63805 | 1.05966 | 37910 ft | 478 kts | 345° |
| 2026-05-04 22:58 | 44.70285 | 1.04243 | 37920 ft | 477 kts | 345° |
| 2026-05-04 22:58 | 44.76809 | 1.02503 | 37907 ft | 477 kts | 345° |
| 2026-05-04 22:59 | 44.83330 | 1.00761 | 37921 ft | 477 kts | 345° |
| 2026-05-04 22:59 | 44.89861 | 0.99011 | 37922 ft | 478 kts | 345° |
| 2026-05-04 23:00 | 44.96380 | 0.97264 | 37918 ft | 478 kts | 345° |
| 2026-05-04 23:00 | 45.02906 | 0.95509 | 37910 ft | 478 kts | 346° |
| 2026-05-04 23:01 | 45.09415 | 0.93754 | 37913 ft | 478 kts | 346° |
| 2026-05-04 23:01 | 45.15940 | 0.91987 | 37920 ft | 478 kts | 346° |
| 2026-05-04 23:02 | 45.22467 | 0.90221 | 37920 ft | 478 kts | 346° |
| 2026-05-04 23:02 | 45.29014 | 0.88445 | 37914 ft | 477 kts | 346° |
| 2026-05-04 23:03 | 45.35542 | 0.86664 | 37913 ft | 477 kts | 346° |
| 2026-05-04 23:03 | 45.42035 | 0.84895 | 37911 ft | 476 kts | 346° |
| 2026-05-04 23:04 | 45.48525 | 0.83121 | 37916 ft | 476 kts | 346° |
| 2026-05-04 23:04 | 45.55022 | 0.81340 | 37945 ft | 475 kts | 346° |
| 2026-05-04 23:05 | 45.61511 | 0.79558 | 37928 ft | 476 kts | 346° |
| 2026-05-04 23:05 | 45.67993 | 0.77772 | 37919 ft | 476 kts | 346° |
| 2026-05-04 23:06 | 45.74454 | 0.75989 | 37914 ft | 475 kts | 346° |
| 2026-05-04 23:06 | 45.80960 | 0.74189 | 37912 ft | 475 kts | 346° |
| 2026-05-04 23:07 | 45.87422 | 0.72398 | 37912 ft | 474 kts | 346° |
| 2026-05-04 23:07 | 45.93897 | 0.70598 | 37913 ft | 474 kts | 346° |
| 2026-05-04 23:08 | 46.00336 | 0.68803 | 37909 ft | 474 kts | 347° |
| 2026-05-04 23:08 | 46.06824 | 0.66990 | 37906 ft | 474 kts | 347° |
| 2026-05-04 23:09 | 46.13292 | 0.65181 | 37913 ft | 474 kts | 347° |
| 2026-05-04 23:09 | 46.19768 | 0.63364 | 37916 ft | 474 kts | 347° |
| 2026-05-04 23:10 | 46.26223 | 0.61547 | 37916 ft | 474 kts | 347° |
| 2026-05-04 23:10 | 46.32718 | 0.59717 | 37914 ft | 474 kts | 347° |
| 2026-05-04 23:11 | 46.39172 | 0.57895 | 37917 ft | 474 kts | 347° |
| 2026-05-04 23:11 | 46.45605 | 0.56071 | 37921 ft | 473 kts | 347° |
| 2026-05-04 23:12 | 46.52124 | 0.54687 | 37932 ft | 475 kts | 354° |
| 2026-05-04 23:12 | 46.58734 | 0.54641 | 37931 ft | 478 kts | 3° |
| 2026-05-04 23:13 | 46.65329 | 0.56005 | 37932 ft | 479 kts | 11° |
| 2026-05-04 23:13 | 46.71787 | 0.58146 | 37939 ft | 478 kts | 13° |
| 2026-05-04 23:14 | 46.78280 | 0.60347 | 37932 ft | 479 kts | 12° |
| 2026-05-04 23:14 | 46.84742 | 0.62508 | 37936 ft | 478 kts | 12° |
| 2026-05-04 23:15 | 46.91248 | 0.64675 | 37934 ft | 479 kts | 12° |
| 2026-05-04 23:15 | 46.97703 | 0.66826 | 37939 ft | 478 kts | 12° |
| 2026-05-04 23:16 | 47.04228 | 0.68825 | 37938 ft | 478 kts | 8° |
| 2026-05-04 23:16 | 47.10781 | 0.69855 | 37934 ft | 476 kts | 3° |
| 2026-05-04 23:17 | 47.17406 | 0.70514 | 37937 ft | 476 kts | 2° |
| 2026-05-04 23:17 | 47.24008 | 0.71176 | 37938 ft | 476 kts | 3° |
| 2026-05-04 23:18 | 47.30621 | 0.71863 | 37936 ft | 476 kts | 3° |
| 2026-05-04 23:18 | 47.37194 | 0.72556 | 37935 ft | 476 kts | 3° |
| 2026-05-04 23:19 | 47.43779 | 0.73264 | 37938 ft | 476 kts | 4° |
| 2026-05-04 23:19 | 47.50313 | 0.74689 | 37937 ft | 476 kts | 11° |
| 2026-05-04 23:20 | 47.56726 | 0.77284 | 37937 ft | 477 kts | 18° |
| 2026-05-04 23:20 | 47.63001 | 0.80403 | 37939 ft | 477 kts | 19° |
| 2026-05-04 23:21 | 47.69257 | 0.83533 | 37938 ft | 477 kts | 18° |
| 2026-05-04 23:21 | 47.75531 | 0.86648 | 37936 ft | 476 kts | 18° |
| 2026-05-04 23:22 | 47.81840 | 0.89780 | 37938 ft | 476 kts | 18° |
| 2026-05-04 23:22 | 47.88092 | 0.92905 | 37939 ft | 476 kts | 18° |
| 2026-05-04 23:23 | 47.94367 | 0.96075 | 37937 ft | 477 kts | 18° |
| 2026-05-04 23:23 | 48.00614 | 0.99243 | 37936 ft | 477 kts | 18° |
| 2026-05-04 23:24 | 48.06857 | 1.02415 | 37936 ft | 476 kts | 19° |
| 2026-05-04 23:24 | 48.13139 | 1.05619 | 37943 ft | 476 kts | 18° |
| 2026-05-04 23:25 | 48.19398 | 1.08818 | 37943 ft | 475 kts | 18° |
| 2026-05-04 23:25 | 48.25624 | 1.11993 | 37937 ft | 475 kts | 18° |
| 2026-05-04 23:26 | 48.31863 | 1.15169 | 37946 ft | 475 kts | 18° |
| 2026-05-04 23:26 | 48.38102 | 1.18357 | 37941 ft | 474 kts | 18° |
| 2026-05-04 23:27 | 48.44362 | 1.21568 | 37938 ft | 474 kts | 18° |
| 2026-05-04 23:27 | 48.50571 | 1.24764 | 37935 ft | 474 kts | 18° |
| 2026-05-04 23:28 | 48.56808 | 1.27968 | 37939 ft | 474 kts | 18° |
| 2026-05-04 23:28 | 48.63063 | 1.31109 | 37927 ft | 474 kts | 18° |
| 2026-05-04 23:29 | 48.69306 | 1.34250 | 37935 ft | 473 kts | 18° |
| 2026-05-04 23:29 | 48.75545 | 1.37407 | 37934 ft | 473 kts | 18° |
| 2026-05-04 23:30 | 48.81771 | 1.40569 | 37933 ft | 473 kts | 18° |
| 2026-05-04 23:30 | 48.87996 | 1.43739 | 37927 ft | 472 kts | 18° |
| 2026-05-04 23:31 | 48.94044 | 1.47618 | 37938 ft | 473 kts | 28° |
| 2026-05-04 23:31 | 48.99503 | 1.53048 | 37939 ft | 472 kts | 39° |
| 2026-05-04 23:32 | 49.04254 | 1.59915 | 37951 ft | 471 kts | 49° |
| 2026-05-04 23:32 | 49.08575 | 1.67376 | 37944 ft | 470 kts | 50° |
| 2026-05-04 23:33 | 49.12877 | 1.74858 | 37948 ft | 470 kts | 50° |
| 2026-05-04 23:33 | 49.17187 | 1.82316 | 37948 ft | 470 kts | 50° |
| 2026-05-04 23:34 | 49.21503 | 1.89785 | 37864 ft | 470 kts | 50° |
| 2026-05-04 23:34 | 49.25814 | 1.97263 | 38020 ft | 471 kts | 50° |
| 2026-05-04 23:35 | 49.30152 | 2.04808 | 37992 ft | 471 kts | 50° |
| 2026-05-04 23:35 | 49.32304 | 2.08562 | 37821 ft | 470 kts | 50° |
| 2026-05-04 23:35 | 49.34442 | 2.12296 | 37896 ft | 471 kts | 50° |
| 2026-05-04 23:36 | 49.38747 | 2.19821 | 37943 ft | 471 kts | 50° |
| 2026-05-04 23:36 | 49.43036 | 2.27344 | 37950 ft | 471 kts | 50° |
| 2026-05-04 23:37 | 49.47340 | 2.34924 | 37952 ft | 470 kts | 50° |
| 2026-05-04 23:37 | 49.51667 | 2.42425 | 37945 ft | 471 kts | 47° |
| 2026-05-04 23:38 | 49.56451 | 2.49309 | 37947 ft | 472 kts | 40° |
| 2026-05-04 23:38 | 49.61730 | 2.55258 | 37946 ft | 472 kts | 33° |
| 2026-05-04 23:39 | 49.67255 | 2.60613 | 37946 ft | 472 kts | 31° |
| 2026-05-04 23:39 | 49.72824 | 2.65968 | 37941 ft | 472 kts | 32° |
| 2026-05-04 23:40 | 49.78367 | 2.71342 | 37945 ft | 471 kts | 32° |
| 2026-05-04 23:40 | 49.83893 | 2.76728 | 37952 ft | 471 kts | 32° |
| 2026-05-04 23:41 | 49.89434 | 2.82147 | 37950 ft | 470 kts | 33° |
| 2026-05-04 23:41 | 49.94938 | 2.87548 | 37948 ft | 470 kts | 33° |
| 2026-05-04 23:42 | 50.00469 | 2.92992 | 37949 ft | 470 kts | 33° |
| 2026-05-04 23:42 | 50.05960 | 2.98410 | 37945 ft | 470 kts | 32° |
| 2026-05-04 23:43 | 50.11463 | 3.03857 | 37939 ft | 470 kts | 32° |
| 2026-05-04 23:43 | 50.16960 | 3.09314 | 37957 ft | 470 kts | 32° |
| 2026-05-04 23:44 | 50.22535 | 3.14646 | 37959 ft | 469 kts | 28° |
| 2026-05-04 23:44 | 50.28398 | 3.19108 | 37953 ft | 470 kts | 24° |
| 2026-05-04 23:45 | 50.34356 | 3.23246 | 37945 ft | 470 kts | 24° |
| 2026-05-04 23:45 | 50.40297 | 3.27419 | 37945 ft | 470 kts | 25° |
| 2026-05-04 23:46 | 50.46207 | 3.31977 | 37951 ft | 471 kts | 26° |
| 2026-05-04 23:46 | 50.52022 | 3.36503 | 37952 ft | 470 kts | 24° |
| 2026-05-04 23:47 | 50.58018 | 3.40671 | 37951 ft | 471 kts | 22° |
| 2026-05-04 23:47 | 50.64006 | 3.44766 | 37943 ft | 470 kts | 22° |
| 2026-05-04 23:48 | 50.69997 | 3.48892 | 37935 ft | 470 kts | 22° |
| 2026-05-04 23:48 | 50.75952 | 3.53017 | 37943 ft | 470 kts | 22° |
| 2026-05-04 23:49 | 50.81919 | 3.57166 | 37927 ft | 470 kts | 23° |
| 2026-05-04 23:49 | 50.87888 | 3.61330 | 37928 ft | 470 kts | 23° |
| 2026-05-04 23:50 | 50.93836 | 3.65509 | 37929 ft | 470 kts | 24° |
| 2026-05-04 23:50 | 50.99772 | 3.69771 | 37927 ft | 471 kts | 24° |
| 2026-05-04 23:51 | 51.05710 | 3.74056 | 37925 ft | 471 kts | 24° |
| 2026-05-04 23:51 | 51.11673 | 3.78364 | 37920 ft | 471 kts | 24° |
| 2026-05-04 23:52 | 51.17616 | 3.82668 | 37943 ft | 471 kts | 24° |
| 2026-05-04 23:52 | 51.23548 | 3.86978 | 37945 ft | 470 kts | 24° |
| 2026-05-04 23:53 | 51.29460 | 3.91291 | 37948 ft | 471 kts | 24° |
| 2026-05-04 23:53 | 51.35401 | 3.95648 | 37947 ft | 471 kts | 24° |
| 2026-05-04 23:54 | 51.41324 | 4.00004 | 37960 ft | 471 kts | 24° |
| 2026-05-04 23:54 | 51.47107 | 4.04948 | 37952 ft | 472 kts | 31° |
| 2026-05-04 23:55 | 51.52470 | 4.10981 | 37958 ft | 473 kts | 38° |
| 2026-05-04 23:56 | 51.59928 | 4.21244 | 37962 ft | 473 kts | 41° |
| 2026-05-04 23:56 | 51.64895 | 4.28202 | 37960 ft | 474 kts | 41° |
| 2026-05-04 23:57 | 51.69836 | 4.35116 | 37958 ft | 474 kts | 41° |
| 2026-05-04 23:57 | 51.74789 | 4.42054 | 37964 ft | 474 kts | 40° |
| 2026-05-04 23:58 | 51.79749 | 4.49019 | 37960 ft | 474 kts | 40° |
| 2026-05-04 23:58 | 51.84714 | 4.56012 | 37958 ft | 475 kts | 40° |
| 2026-05-04 23:59 | 51.89681 | 4.63026 | 37969 ft | 475 kts | 40° |
| 2026-05-04 23:59 | 51.94651 | 4.70068 | 37965 ft | 475 kts | 41° |
| 2026-05-05 00:00 | 51.99600 | 4.77100 | 37963 ft | 475 kts | 41° |
| 2026-05-05 00:00 | 52.04552 | 4.84161 | 37953 ft | 476 kts | 41° |
| 2026-05-05 00:01 | 52.09508 | 4.91247 | 37954 ft | 476 kts | 41° |
| 2026-05-05 00:01 | 52.14481 | 4.98378 | 37950 ft | 476 kts | 41° |
| 2026-05-05 00:02 | 52.19405 | 5.05464 | 37957 ft | 476 kts | 41° |
| 2026-05-05 00:02 | 52.24369 | 5.12628 | 37956 ft | 476 kts | 41° |
| 2026-05-05 00:03 | 52.29287 | 5.19749 | 37957 ft | 476 kts | 41° |
| 2026-05-05 00:03 | 52.34227 | 5.26922 | 37961 ft | 476 kts | 41° |
| 2026-05-05 00:04 | 52.39153 | 5.34096 | 37965 ft | 475 kts | 41° |
| 2026-05-05 00:04 | 52.44090 | 5.41310 | 37970 ft | 477 kts | 40° |
| 2026-05-05 00:05 | 52.49040 | 5.48568 | 37965 ft | 476 kts | 40° |
| 2026-05-05 00:05 | 52.53951 | 5.55790 | 37968 ft | 477 kts | 40° |
| 2026-05-05 00:06 | 52.58882 | 5.63062 | 37972 ft | 477 kts | 40° |
| 2026-05-05 00:06 | 52.63794 | 5.70330 | 37977 ft | 477 kts | 41° |
| 2026-05-05 00:07 | 52.68729 | 5.77652 | 37986 ft | 477 kts | 41° |
| 2026-05-05 00:07 | 52.73637 | 5.84962 | 37994 ft | 477 kts | 41° |
| 2026-05-05 00:08 | 52.78538 | 5.92287 | 37996 ft | 477 kts | 41° |
| 2026-05-05 00:08 | 52.83437 | 5.99629 | 37982 ft | 477 kts | 40° |
| 2026-05-05 00:09 | 52.88325 | 6.06978 | 37972 ft | 476 kts | 40° |
| 2026-05-05 00:09 | 52.93228 | 6.14370 | 37969 ft | 477 kts | 40° |
| 2026-05-05 00:10 | 52.98096 | 6.21735 | 37966 ft | 476 kts | 40° |
| 2026-05-05 00:10 | 53.03001 | 6.29178 | 37962 ft | 476 kts | 40° |
| 2026-05-05 00:11 | 53.07864 | 6.36581 | 37983 ft | 476 kts | 40° |
| 2026-05-05 00:11 | 53.12730 | 6.44016 | 37964 ft | 476 kts | 40° |
| 2026-05-05 00:12 | 53.17594 | 6.51471 | 37971 ft | 476 kts | 40° |
| 2026-05-05 00:12 | 53.22414 | 6.58882 | 37973 ft | 475 kts | 40° |
| 2026-05-05 00:13 | 53.27261 | 6.66358 | 37976 ft | 474 kts | 41° |
| 2026-05-05 00:13 | 53.32097 | 6.73840 | 37975 ft | 475 kts | 41° |
| 2026-05-05 00:14 | 53.36902 | 6.81301 | 37960 ft | 475 kts | 41° |
| 2026-05-05 00:14 | 53.41736 | 6.88830 | 37971 ft | 475 kts | 40° |
| 2026-05-05 00:15 | 53.46542 | 6.96338 | 37977 ft | 474 kts | 41° |
| 2026-05-05 00:15 | 53.51364 | 7.03893 | 37986 ft | 475 kts | 41° |
| 2026-05-05 00:16 | 53.56176 | 7.11461 | 37977 ft | 474 kts | 40° |
| 2026-05-05 00:16 | 53.60972 | 7.19030 | 37986 ft | 473 kts | 40° |
| 2026-05-05 00:17 | 53.65741 | 7.26577 | 37974 ft | 473 kts | 41° |
| 2026-05-05 00:17 | 53.70520 | 7.34169 | 37987 ft | 473 kts | 41° |
| 2026-05-05 00:18 | 53.75296 | 7.41781 | 37992 ft | 473 kts | 40° |
| 2026-05-05 00:18 | 53.80073 | 7.49418 | 38000 ft | 474 kts | 40° |
| 2026-05-05 00:19 | 53.84830 | 7.57046 | 38001 ft | 474 kts | 41° |
| 2026-05-05 00:19 | 53.89610 | 7.64738 | 38015 ft | 474 kts | 40° |
| 2026-05-05 00:20 | 53.94386 | 7.72450 | 38002 ft | 474 kts | 41° |
| 2026-05-05 00:20 | 53.99134 | 7.80141 | 38011 ft | 473 kts | 41° |
| 2026-05-05 00:21 | 54.03911 | 7.87907 | 38012 ft | 473 kts | 41° |
| 2026-05-05 00:21 | 54.08643 | 7.95624 | 38011 ft | 473 kts | 41° |
| 2026-05-05 00:22 | 54.13369 | 8.03357 | 38017 ft | 473 kts | 41° |
| 2026-05-05 00:22 | 54.18095 | 8.11115 | 38009 ft | 473 kts | 41° |
| 2026-05-05 00:23 | 54.22812 | 8.18881 | 37998 ft | 472 kts | 41° |
| 2026-05-05 00:23 | 54.27501 | 8.26634 | 37988 ft | 471 kts | 41° |
| 2026-05-05 00:24 | 54.32202 | 8.34425 | 37985 ft | 471 kts | 41° |
| 2026-05-05 00:24 | 54.36888 | 8.42226 | 37988 ft | 472 kts | 41° |
| 2026-05-05 00:25 | 54.41573 | 8.50046 | 37987 ft | 472 kts | 41° |
| 2026-05-05 00:25 | 54.46263 | 8.57900 | 37976 ft | 472 kts | 41° |
| 2026-05-05 00:26 | 54.50951 | 8.65783 | 37983 ft | 472 kts | 42° |
| 2026-05-05 00:26 | 54.55622 | 8.73659 | 37974 ft | 472 kts | 42° |
| 2026-05-05 00:27 | 54.60297 | 8.81570 | 37973 ft | 473 kts | 42° |
| 2026-05-05 00:27 | 54.64956 | 8.89479 | 37971 ft | 472 kts | 42° |
| 2026-05-05 00:28 | 54.69608 | 8.97405 | 37974 ft | 472 kts | 42° |
| 2026-05-05 00:28 | 54.74272 | 9.05377 | 37971 ft | 472 kts | 42° |
| 2026-05-05 00:29 | 54.78942 | 9.13393 | 37969 ft | 471 kts | 42° |
| 2026-05-05 00:29 | 54.83595 | 9.21405 | 37964 ft | 471 kts | 42° |
| 2026-05-05 00:30 | 54.88202 | 9.29362 | 37973 ft | 472 kts | 42° |
| 2026-05-05 00:30 | 54.92834 | 9.37391 | 37971 ft | 472 kts | 42° |
| 2026-05-05 00:31 | 54.97471 | 9.45459 | 37969 ft | 473 kts | 42° |
| 2026-05-05 00:31 | 55.02115 | 9.53569 | 37981 ft | 473 kts | 42° |
| 2026-05-05 00:32 | 55.06730 | 9.61657 | 37996 ft | 473 kts | 42° |
| 2026-05-05 00:32 | 55.10764 | 9.70718 | 37977 ft | 477 kts | 60° |
| 2026-05-05 00:33 | 55.13157 | 9.81566 | 37978 ft | 479 kts | 72° |
| 2026-05-05 00:33 | 55.15061 | 9.92635 | 37972 ft | 479 kts | 72° |
| 2026-05-05 00:34 | 55.16997 | 10.03797 | 37962 ft | 479 kts | 72° |
| 2026-05-05 00:34 | 55.18931 | 10.14819 | 37949 ft | 479 kts | 72° |
| 2026-05-05 00:34 | 55.19912 | 10.20408 | 37637 ft | 481 kts | 72° |
| 2026-05-05 00:35 | 55.20880 | 10.25938 | 36863 ft | 483 kts | 72° |
| 2026-05-05 00:35 | 55.21854 | 10.31520 | 36109 ft | 483 kts | 72° |
| 2026-05-05 00:35 | 55.22834 | 10.37155 | 35564 ft | 488 kts | 72° |
| 2026-05-05 00:35 | 55.23822 | 10.42859 | 35019 ft | 490 kts | 72° |
| 2026-05-05 00:36 | 55.24801 | 10.48522 | 34354 ft | 488 kts | 72° |
| 2026-05-05 00:36 | 55.25764 | 10.54115 | 33632 ft | 483 kts | 72° |
| 2026-05-05 00:36 | 55.26735 | 10.59780 | 32892 ft | 478 kts | 71° |
| 2026-05-05 00:36 | 55.27672 | 10.65261 | 32164 ft | 473 kts | 72° |
| 2026-05-05 00:37 | 55.28643 | 10.70751 | 31429 ft | 474 kts | 71° |
| 2026-05-05 00:37 | 55.29629 | 10.76215 | 30702 ft | 476 kts | 71° |
| 2026-05-05 00:37 | 55.30637 | 10.81764 | 29910 ft | 478 kts | 71° |
| 2026-05-05 00:37 | 55.31571 | 10.87271 | 29128 ft | 474 kts | 73° |
| 2026-05-05 00:38 | 55.32449 | 10.92818 | 28338 ft | 469 kts | 73° |
| 2026-05-05 00:38 | 55.33324 | 10.98257 | 27557 ft | 464 kts | 72° |
| 2026-05-05 00:38 | 55.34213 | 11.03651 | 26772 ft | 459 kts | 72° |
| 2026-05-05 00:38 | 55.35094 | 11.08961 | 25992 ft | 454 kts | 72° |
| 2026-05-05 00:39 | 55.35974 | 11.14274 | 25206 ft | 450 kts | 72° |
| 2026-05-05 00:39 | 55.36840 | 11.19507 | 24427 ft | 445 kts | 72° |
| 2026-05-05 00:39 | 55.37686 | 11.24639 | 23656 ft | 441 kts | 72° |
| 2026-05-05 00:39 | 55.38528 | 11.29776 | 22870 ft | 437 kts | 72° |
| 2026-05-05 00:40 | 55.39362 | 11.34868 | 22091 ft | 433 kts | 72° |
| 2026-05-05 00:40 | 55.40178 | 11.39870 | 21319 ft | 428 kts | 72° |
| 2026-05-05 00:40 | 55.40992 | 11.44877 | 20538 ft | 423 kts | 72° |
| 2026-05-05 00:40 | 55.41785 | 11.49780 | 19766 ft | 415 kts | 72° |
| 2026-05-05 00:41 | 55.42559 | 11.54564 | 19009 ft | 409 kts | 72° |
| 2026-05-05 00:41 | 55.43328 | 11.59321 | 18246 ft | 403 kts | 71° |
| 2026-05-05 00:41 | 55.44462 | 11.63749 | 17462 ft | 393 kts | 51° |
| 2026-05-05 00:41 | 55.46267 | 11.67154 | 16725 ft | 382 kts | 38° |
| 2026-05-05 00:42 | 55.48270 | 11.70206 | 16005 ft | 375 kts | 36° |
| 2026-05-05 00:42 | 55.50246 | 11.73165 | 15424 ft | 373 kts | 37° |
| 2026-05-05 00:42 | 55.52205 | 11.76137 | 14843 ft | 374 kts | 37° |
| 2026-05-05 00:42 | 55.54148 | 11.79132 | 14273 ft | 376 kts | 38° |
| 2026-05-05 00:43 | 55.56107 | 11.82188 | 13692 ft | 377 kts | 38° |
| 2026-05-05 00:43 | 55.58051 | 11.85244 | 13108 ft | 378 kts | 38° |
| 2026-05-05 00:43 | 55.60018 | 11.88345 | 12598 ft | 377 kts | 38° |
| 2026-05-05 00:43 | 55.61940 | 11.91383 | 12293 ft | 368 kts | 38° |
| 2026-05-05 00:44 | 55.63815 | 11.94351 | 12045 ft | 360 kts | 38° |
| 2026-05-05 00:44 | 55.65662 | 11.97273 | 11811 ft | 352 kts | 38° |
| 2026-05-05 00:44 | 55.67459 | 12.00119 | 11579 ft | 344 kts | 38° |
| 2026-05-05 00:44 | 55.69213 | 12.02900 | 11340 ft | 338 kts | 38° |
| 2026-05-05 00:45 | 55.70948 | 12.05655 | 11081 ft | 331 kts | 38° |
| 2026-05-05 00:45 | 55.72605 | 12.08396 | 10839 ft | 327 kts | 44° |
| 2026-05-05 00:45 | 55.73691 | 12.11893 | 10549 ft | 328 kts | 75° |
| 2026-05-05 00:45 | 55.73781 | 12.15880 | 10339 ft | 322 kts | 98° |
| 2026-05-05 00:46 | 55.73370 | 12.19739 | 10069 ft | 316 kts | 103° |
| 2026-05-05 00:46 | 55.73026 | 12.22690 | 9876 ft | 313 kts | 101° |
| 2026-05-05 00:46 | 55.72968 | 12.23227 | 9844 ft | 312 kts | 101° |
| 2026-05-05 00:46 | 55.72614 | 12.27003 | 9576 ft | 308 kts | 98° |
| 2026-05-05 00:47 | 55.72338 | 12.30699 | 9329 ft | 304 kts | 97° |
| 2026-05-05 00:47 | 55.72257 | 12.31904 | 9242 ft | 302 kts | 97° |
| 2026-05-05 00:47 | 55.72064 | 12.34908 | 9042 ft | 299 kts | 96° |
| 2026-05-05 00:47 | 55.71951 | 12.36710 | 8933 ft | 298 kts | 96° |
| 2026-05-05 00:48 | 55.71725 | 12.40357 | 8623 ft | 297 kts | 96° |
| 2026-05-05 00:48 | 55.71502 | 12.43928 | 8406 ft | 293 kts | 96° |
| 2026-05-05 00:48 | 55.71275 | 12.47528 | 8148 ft | 289 kts | 96° |
| 2026-05-05 00:48 | 55.71243 | 12.51040 | 7869 ft | 285 kts | 79° |
| 2026-05-05 00:49 | 55.71836 | 12.54291 | 7642 ft | 277 kts | 61° |
| 2026-05-05 00:49 | 55.72699 | 12.57281 | 7378 ft | 273 kts | 58° |
| 2026-05-05 00:49 | 55.73595 | 12.60214 | 7139 ft | 270 kts | 58° |
| 2026-05-05 00:49 | 55.74509 | 12.63117 | 6887 ft | 265 kts | 52° |
| 2026-05-05 00:50 | 55.75638 | 12.65618 | 6642 ft | 258 kts | 40° |
| 2026-05-05 00:50 | 55.76937 | 12.67729 | 6400 ft | 253 kts | 36° |
| 2026-05-05 00:50 | 55.78269 | 12.69746 | 6140 ft | 250 kts | 36° |
| 2026-05-05 00:50 | 55.79584 | 12.71740 | 5885 ft | 247 kts | 36° |
| 2026-05-05 00:51 | 55.80882 | 12.73732 | 5637 ft | 246 kts | 36° |
| 2026-05-05 00:51 | 55.82138 | 12.75780 | 5386 ft | 247 kts | 45° |
| 2026-05-05 00:51 | 55.82898 | 12.78494 | 5125 ft | 254 kts | 77° |
| 2026-05-05 00:51 | 55.82799 | 12.81619 | 4872 ft | 255 kts | 109° |
| 2026-05-05 00:52 | 55.81864 | 12.84209 | 4615 ft | 252 kts | 141° |
| 2026-05-05 00:52 | 55.80424 | 12.85951 | 4371 ft | 249 kts | 153° |
| 2026-05-05 00:52 | 55.78923 | 12.87440 | 4110 ft | 247 kts | 155° |
| 2026-05-05 00:52 | 55.77403 | 12.88844 | 3862 ft | 244 kts | 163° |
| 2026-05-05 00:53 | 55.75788 | 12.89170 | 3554 ft | 233 kts | 196° |
| 2026-05-05 00:53 | 55.74385 | 12.87969 | 3248 ft | 219 kts | 229° |
| 2026-05-05 00:53 | 55.73502 | 12.85877 | 2993 ft | 213 kts | 243° |
| 2026-05-05 00:53 | 55.72745 | 12.83623 | 2729 ft | 212 kts | 241° |
| 2026-05-05 00:54 | 55.71860 | 12.81562 | 2448 ft | 209 kts | 233° |
| 2026-05-05 00:54 | 55.70860 | 12.79734 | 2180 ft | 201 kts | 229° |
| 2026-05-05 00:54 | 55.69864 | 12.78091 | 2018 ft | 189 kts | 227° |
| 2026-05-05 00:54 | 55.68912 | 12.76616 | 1767 ft | 177 kts | 227° |
| 2026-05-05 00:55 | 55.68016 | 12.75242 | 1483 ft | 165 kts | 227° |
| 2026-05-05 00:55 | 55.67190 | 12.73974 | 1227 ft | 153 kts | 228° |
| 2026-05-05 00:55 | 55.66419 | 12.72782 | 1003 ft | 140 kts | 227° |
| 2026-05-05 00:55 | 55.65711 | 12.71641 | 850 ft | 137 kts | 229° |
| 2026-05-05 00:56 | 55.65000 | 12.70531 | 685 ft | 136 kts | 226° |
| 2026-05-05 00:56 | 55.64268 | 12.69446 | 484 ft | 141 kts | 225° |
| 2026-05-05 00:56 | 55.63526 | 12.68294 | 345 ft | 142 kts | 226° |
| 2026-05-05 00:56 | 55.62768 | 12.67118 | 142 ft | 147 kts | 225° |
| 2026-05-05 00:57 | 55.62025 | 12.65956 | 40 ft | 137 kts | 225° |
| 2026-05-05 00:57 | 55.61366 | 12.64888 | 28 ft | 118 kts | 225° |
| 2026-05-05 00:57 | 55.60852 | 12.64083 | 23 ft | 70 kts | 220° |
| 2026-05-05 00:57 | 55.60746 | 12.63685 | 22 ft | 31 kts | 308° |
| 2026-05-05 00:58 | 55.60928 | 12.63705 | 23 ft | 28 kts | 30° |
| 2026-05-05 00:58 | 55.61086 | 12.63887 | 25 ft | 26 kts | 32° |
| 2026-05-05 00:58 | 55.61234 | 12.64049 | 27 ft | 24 kts | 34° |
| 2026-05-05 00:58 | 55.61368 | 12.64214 | 27 ft | 23 kts | 37° |
| 2026-05-05 00:59 | 55.61500 | 12.64369 | 27 ft | 22 kts | 31° |
| 2026-05-05 00:59 | 55.61633 | 12.64519 | 26 ft | 22 kts | 34° |
| 2026-05-05 00:59 | 55.61756 | 12.64668 | 28 ft | 21 kts | 32° |
| 2026-05-05 00:59 | 55.61883 | 12.64804 | 25 ft | 21 kts | 31° |
| 2026-05-05 01:00 | 55.62011 | 12.64949 | 25 ft | 21 kts | 34° |
| 2026-05-05 01:00 | 55.62132 | 12.65091 | 30 ft | 18 kts | 33° |
| 2026-05-05 01:00 | 55.62254 | 12.65118 | 26 ft | 20 kts | 320° |
| 2026-05-05 01:00 | 55.62336 | 12.64922 | 26 ft | 19 kts | 303° |
| 2026-05-05 01:01 | 55.62407 | 12.64724 | 26 ft | 19 kts | 304° |
| 2026-05-05 01:01 | 55.62522 | 12.64644 | 26 ft | 18 kts | 0° |
| 2026-05-05 01:01 | 55.62632 | 12.64624 | 26 ft | 12 kts | 311° |
| 2026-05-05 01:01 | 55.62643 | 12.64578 | 26 ft | 0 kts | 285° |